createdAt,value
2019-03-27T00:00:32.723Z,953.3
2019-03-27T00:03:38.629Z,953.2
2019-03-27T00:06:44.588Z,953.2
2019-03-27T00:09:50.548Z,953.1
2019-03-27T00:12:56.509Z,953.2
2019-03-27T00:16:02.519Z,953.1
2019-03-27T00:19:08.530Z,953.1
2019-03-27T00:22:14.414Z,953
2019-03-27T00:25:20.292Z,953.1
2019-03-27T00:28:26.327Z,953.1
2019-03-27T00:31:32.278Z,953.2
2019-03-27T00:34:38.185Z,953.2
2019-03-27T00:37:44.194Z,953.1
2019-03-27T00:40:50.151Z,953.1
2019-03-27T00:43:56.108Z,953.1
2019-03-27T00:47:02.003Z,953.2
2019-03-27T00:50:07.937Z,953.1
2019-03-27T00:53:13.926Z,953.1
2019-03-27T00:56:19.846Z,953.2
2019-03-27T00:59:25.729Z,953.2
2019-03-27T01:02:31.767Z,953.3
2019-03-27T01:08:05.443Z,953.3
2019-03-27T01:11:11.558Z,953.3
2019-03-27T01:39:22.738Z,953.3
2019-03-27T02:49:08.188Z,953.8
2019-03-27T04:58:29.738Z,954.7
2019-03-27T05:38:29.934Z,955.2
2019-03-27T07:39:39.508Z,955.6
2019-03-27T07:42:54.735Z,955.6
2019-03-27T07:46:21.077Z,955.6
2019-03-27T07:49:47.062Z,955.7
2019-03-27T07:53:01.730Z,955.6
2019-03-27T07:56:35.445Z,955.7
2019-03-27T08:00:12.238Z,955.7
2019-03-27T08:04:03.458Z,955.7
2019-03-27T08:07:30.379Z,955.8
2019-03-27T08:11:13.913Z,955.8
2019-03-27T08:14:50.022Z,955.7
2019-03-27T08:21:26.207Z,955.7
2019-03-27T08:26:49.976Z,955.8
2019-03-27T08:31:03.982Z,955.8
2019-03-27T08:35:35.202Z,955.8
2019-03-27T08:38:55.999Z,955.8
2019-03-27T08:42:44.742Z,955.8
2019-03-27T08:47:13.234Z,955.7
2019-03-27T08:52:49.067Z,955.7
2019-03-27T08:56:29.568Z,955.7
2019-03-27T09:00:11.999Z,955.7
2019-03-27T09:03:50.310Z,955.7
2019-03-27T09:07:30.282Z,955.6
2019-03-27T09:10:47.947Z,955.6
2019-03-27T09:14:13.500Z,955.6
2019-03-27T09:17:53.126Z,955.7
2019-03-27T09:21:34.213Z,955.6
2019-03-27T09:25:01.574Z,955.6
2019-03-27T09:28:25.235Z,955.6
2019-03-27T09:31:52.923Z,955.6
2019-03-27T09:58:43.434Z,955.6
2019-03-27T10:01:49.342Z,955.5
2019-03-27T10:04:57.198Z,955.5
2019-03-27T10:08:03.259Z,955.4
2019-03-27T10:11:09.160Z,955.3
2019-03-27T11:13:20.336Z,954.8
2019-03-27T11:16:45.343Z,954.6
2019-03-27T11:21:07.793Z,954.6
2019-03-27T11:25:04.442Z,954.6
2019-03-27T11:28:21.998Z,954.5
2019-03-27T11:31:49.751Z,954.5
2019-03-27T11:35:22.870Z,954.5
2019-03-27T11:38:51.460Z,954.4
2019-03-27T11:42:23.116Z,954.4
2019-03-27T11:46:19.383Z,954.4
2019-03-27T11:49:56.417Z,954.4
2019-03-27T11:53:40.967Z,954.2
2019-03-27T11:57:08.373Z,954.2
2019-03-27T12:00:14.481Z,954.2
2019-03-27T12:03:20.606Z,954.2
2019-03-27T12:06:26.471Z,954.1
2019-03-27T12:09:32.549Z,954.1
2019-03-27T12:12:38.566Z,954.1
2019-03-27T12:15:44.895Z,954.1
2019-03-27T12:18:51.157Z,954.1
2019-03-27T12:21:57.110Z,954.1
2019-03-27T12:25:06.118Z,954
2019-03-27T12:28:12.078Z,954
2019-03-27T12:31:18.455Z,954
2019-03-27T12:34:24.615Z,953.9
2019-03-27T12:37:30.634Z,954
2019-03-27T12:40:36.633Z,954
2019-03-27T12:43:42.789Z,953.8
2019-03-27T12:46:51.692Z,953.8
2019-03-27T12:49:58.824Z,953.9
2019-03-27T12:53:04.834Z,953.8
2019-03-27T12:56:10.900Z,953.8
2019-03-27T12:59:17.918Z,953.8
2019-03-27T13:02:24.186Z,953.8
2019-03-27T13:05:30.594Z,953.8
2019-03-27T13:08:36.658Z,953.7
2019-03-27T13:11:45.143Z,953.8
2019-03-27T13:14:51.819Z,953.7
2019-03-27T13:17:57.950Z,953.7
2019-03-27T13:21:03.884Z,953.7
2019-03-27T13:24:12.733Z,953.7
2019-03-27T13:27:18.692Z,953.7
2019-03-27T13:30:24.859Z,953.7
2019-03-27T13:33:30.813Z,953.8
2019-03-27T13:36:36.980Z,953.7
2019-03-27T13:39:42.889Z,953.7
2019-03-27T13:42:48.966Z,953.8
2019-03-27T13:45:55.116Z,953.8
2019-03-27T13:49:01.075Z,953.8
2019-03-27T13:52:07.196Z,953.8
2019-03-27T13:55:13.077Z,953.7
2019-03-27T13:58:19.111Z,953.7
2019-03-27T14:01:25.231Z,953.7
2019-03-27T14:04:31.234Z,953.8
2019-03-27T14:07:37.267Z,953.8
2019-03-27T14:10:43.263Z,953.8
2019-03-27T14:13:49.429Z,953.8
2019-03-27T14:16:55.514Z,953.8
2019-03-27T14:20:04.465Z,953.8
2019-03-27T14:23:10.863Z,953.8
2019-03-27T14:26:16.846Z,953.7
2019-03-27T14:29:22.805Z,953.7
2019-03-27T14:32:31.939Z,953.8
2019-03-27T14:35:37.897Z,953.8
2019-03-27T14:38:43.961Z,953.9
2019-03-27T14:41:49.927Z,953.9
2019-03-27T14:44:55.814Z,953.9
2019-03-27T14:48:01.910Z,953.9
2019-03-27T14:51:08.010Z,953.9
2019-03-27T14:54:14.069Z,954
2019-03-27T14:57:19.953Z,954
2019-03-27T15:00:25.888Z,953.9
2019-03-27T15:03:31.851Z,953.9
2019-03-27T15:06:37.728Z,954
2019-03-27T15:09:43.827Z,954
2019-03-27T15:12:49.830Z,954
2019-03-27T15:15:55.894Z,954
2019-03-27T15:19:01.859Z,954
2019-03-27T15:22:21.363Z,954
2019-03-27T15:25:28.417Z,954
2019-03-27T15:28:34.323Z,954.1
2019-03-27T15:31:40.343Z,954.1
2019-03-27T15:34:46.258Z,954.1
2019-03-27T15:37:52.259Z,954.1
2019-03-27T15:40:58.131Z,954.1
2019-03-27T15:44:07.144Z,954.2
2019-03-27T15:47:13.029Z,954.2
2019-03-27T15:50:22.243Z,954.1
2019-03-27T15:53:29.330Z,954.2
2019-03-27T15:56:38.287Z,954.2
2019-03-27T15:59:44.424Z,954.3
2019-03-27T16:02:50.529Z,954.4
2019-03-27T16:05:56.438Z,954.3
2019-03-27T16:09:02.504Z,954.4
2019-03-27T16:12:08.463Z,954.4
2019-03-27T16:15:14.535Z,954.4
2019-03-27T16:18:20.402Z,954.5
2019-03-27T16:21:26.312Z,954.5
2019-03-27T16:24:32.360Z,954.5
2019-03-27T16:27:38.280Z,954.6
2019-03-27T16:30:44.225Z,954.6
2019-03-27T16:33:50.186Z,954.7
2019-03-27T16:36:56.242Z,954.8
2019-03-27T16:40:02.359Z,954.8
2019-03-27T16:43:08.374Z,954.8
2019-03-27T16:46:14.428Z,954.8
2019-03-27T16:49:20.396Z,954.9
2019-03-27T16:52:26.349Z,954.9
2019-03-27T16:55:32.308Z,955
2019-03-27T16:58:38.374Z,955.1
2019-03-27T17:01:44.250Z,955.1
2019-03-27T17:04:50.288Z,955.1
2019-03-27T17:07:56.251Z,955.2
2019-03-27T17:11:02.211Z,955.2
2019-03-27T17:14:08.169Z,955.3
2019-03-27T17:17:14.049Z,955.5
2019-03-27T17:20:19.988Z,955.5
2019-03-27T17:23:25.890Z,955.6
2019-03-27T17:26:31.907Z,955.7
2019-03-27T17:29:38.072Z,955.7
2019-03-27T17:32:44.032Z,955.8
2019-03-27T17:35:49.924Z,955.7
2019-03-27T17:38:55.848Z,955.8
2019-03-27T17:42:01.726Z,955.9
2019-03-27T17:45:07.768Z,955.9
2019-03-27T17:48:13.727Z,956
2019-03-27T17:51:19.607Z,956.1
2019-03-27T17:54:25.655Z,956.1
2019-03-27T17:57:31.709Z,956.2
2019-03-27T18:00:37.718Z,956.2
2019-03-27T18:03:43.634Z,956.2
2019-03-27T18:06:49.618Z,956.4
2019-03-27T18:09:55.653Z,956.4
2019-03-27T18:13:01.612Z,956.5
2019-03-27T18:16:07.580Z,956.5
2019-03-27T18:19:13.532Z,956.6
2019-03-27T18:22:19.491Z,956.5
2019-03-27T18:25:25.601Z,956.5
2019-03-27T18:28:31.618Z,956.5
2019-03-27T18:31:37.571Z,956.6
2019-03-27T18:34:43.666Z,956.7
2019-03-27T18:37:49.517Z,956.6
2019-03-27T18:40:55.455Z,956.7
2019-03-27T18:44:04.488Z,956.6
2019-03-27T18:47:10.433Z,956.7
2019-03-27T18:50:16.320Z,956.7
2019-03-27T18:53:22.279Z,956.7
2019-03-27T18:56:28.336Z,956.6
2019-03-27T18:59:34.443Z,956.6
2019-03-27T19:02:40.327Z,956.6
2019-03-27T19:05:46.318Z,956.6
2019-03-27T19:08:52.197Z,956.7
2019-03-27T19:11:58.127Z,956.6
2019-03-27T19:15:04.005Z,956.7
2019-03-27T19:18:09.958Z,956.7
2019-03-27T19:21:16.050Z,956.7
2019-03-27T19:24:21.897Z,956.7
2019-03-27T19:27:28.034Z,956.8
2019-03-27T19:30:33.991Z,956.8
2019-03-27T19:33:40.016Z,956.8
2019-03-27T19:36:46.015Z,956.8
2019-03-27T19:39:52.032Z,956.9
2019-03-27T19:42:58.399Z,956.9
2019-03-27T19:46:04.659Z,956.8
2019-03-27T19:49:10.672Z,956.8
2019-03-27T19:52:16.643Z,956.9
2019-03-27T19:55:22.619Z,956.9
2019-03-27T19:58:28.510Z,956.9
2019-03-27T20:01:34.512Z,956.8
2019-03-27T20:04:40.472Z,956.9
2019-03-27T20:07:46.432Z,956.9
2019-03-27T20:10:52.391Z,957
2019-03-27T20:13:58.271Z,957
2019-03-27T20:17:04.138Z,957
2019-03-27T20:20:10.173Z,957
2019-03-27T20:23:16.848Z,957
2019-03-27T20:26:22.910Z,957.1
2019-03-27T20:29:29.020Z,957
2019-03-27T20:32:35.034Z,957.1
2019-03-27T20:35:41.106Z,957.1
2019-03-27T20:38:47.056Z,957.2
2019-03-27T20:41:53.119Z,957.2
2019-03-27T20:44:59.004Z,957.2
2019-03-27T20:48:05.265Z,957.3
2019-03-27T20:51:11.214Z,957.3
2019-03-27T20:54:17.170Z,957.3
2019-03-27T20:57:23.254Z,957.4
2019-03-27T21:00:29.192Z,957.4
2019-03-27T21:03:35.125Z,957.4
2019-03-27T21:06:41.133Z,957.5
2019-03-27T21:09:47.073Z,957.5
2019-03-27T21:12:57.589Z,957.5
2019-03-27T21:16:03.748Z,957.5
2019-03-27T21:19:09.634Z,957.4
2019-03-27T21:22:15.621Z,957.4
2019-03-27T21:25:21.580Z,957.5
2019-03-27T21:28:27.535Z,957.6
2019-03-27T21:31:33.651Z,957.5
2019-03-27T21:34:39.766Z,957.5
2019-03-27T21:37:45.644Z,957.5
2019-03-27T21:40:51.685Z,957.6
2019-03-27T21:43:57.564Z,957.6
2019-03-27T21:47:03.610Z,957.6
2019-03-27T21:50:09.481Z,957.6
2019-03-27T21:53:15.523Z,957.7
2019-03-27T21:56:21.404Z,957.7
2019-03-27T21:59:27.348Z,957.7
2019-03-27T22:02:33.301Z,957.7
2019-03-27T22:05:39.180Z,957.7
2019-03-27T22:08:45.117Z,957.7
2019-03-27T22:11:51.159Z,957.6
2019-03-27T22:14:57.141Z,957.7
2019-03-27T22:18:03.411Z,957.7
2019-03-27T22:21:09.367Z,957.7
2019-03-27T22:24:15.328Z,957.7
2019-03-27T22:27:21.238Z,957.7
2019-03-27T22:30:27.145Z,957.8
2019-03-27T22:33:33.052Z,957.8
2019-03-27T22:36:39.124Z,957.9
2019-03-27T22:39:45.158Z,958
2019-03-27T22:42:51.060Z,957.9
2019-03-27T22:46:00.403Z,958
2019-03-27T22:49:09.285Z,958
2019-03-27T22:52:15.226Z,958
2019-03-27T22:55:21.175Z,958
2019-03-27T22:58:27.164Z,958
2019-03-27T23:01:33.020Z,958.1
2019-03-27T23:04:38.966Z,958.1
2019-03-27T23:07:45.015Z,958.1
2019-03-27T23:10:51.077Z,958.1
2019-03-27T23:13:57.037Z,958.1
2019-03-27T23:17:02.916Z,958.2
2019-03-27T23:20:08.960Z,958.2
2019-03-27T23:23:14.966Z,958.1
2019-03-27T23:26:20.852Z,958.2
2019-03-27T23:29:26.888Z,958.1
2019-03-27T23:32:32.931Z,958.1
2019-03-27T23:35:38.961Z,958.1
2019-03-27T23:38:44.922Z,958.2
2019-03-27T23:41:50.885Z,958.2
2019-03-27T23:44:56.943Z,958.1
2019-03-27T23:48:03.218Z,958.2
2019-03-27T23:51:09.171Z,958.2
2019-03-27T23:54:15.050Z,958.2
2019-03-27T23:57:21.000Z,958.1
